createdAt,value
2022-11-18T00:02:35.618Z,46.72
2022-11-18T00:05:24.277Z,47.03
2022-11-18T00:08:14.213Z,46.65
2022-11-18T00:11:06.946Z,46.68
2022-11-18T00:14:12.941Z,46.90
2022-11-18T00:17:03.377Z,47.19
2022-11-18T00:19:52.024Z,47.10
2022-11-18T00:22:40.714Z,47.07
2022-11-18T00:25:30.720Z,47.07
2022-11-18T00:28:19.284Z,46.76
2022-11-18T00:31:09.828Z,46.77
2022-11-18T00:33:58.411Z,47.06
2022-11-18T00:36:47.800Z,47.05
2022-11-18T00:39:36.433Z,47.28
2022-11-18T00:42:44.295Z,46.74
2022-11-18T00:45:32.925Z,46.90
2022-11-18T00:48:21.942Z,46.68
2022-11-18T00:51:12.679Z,47.03
2022-11-18T00:54:01.299Z,46.72
2022-11-18T00:56:49.983Z,46.82
2022-11-18T00:59:40.002Z,46.93
2022-11-18T01:02:28.692Z,46.79
2022-11-18T01:05:17.285Z,47.21
2022-11-18T01:08:06.636Z,47.15
2022-11-18T01:10:55.254Z,47.26
2022-11-18T01:13:42.932Z,47.19
2022-11-18T01:16:33.014Z,46.77
2022-11-18T01:19:21.755Z,46.75
2022-11-18T01:22:10.451Z,46.90
2022-11-18T01:24:59.142Z,46.71
2022-11-18T01:27:47.718Z,47.23
2022-11-18T01:30:36.628Z,47.36
2022-11-18T01:33:26.602Z,47.06
2022-11-18T01:36:19.946Z,47.07
2022-11-18T01:39:08.558Z,47.07
2022-11-18T01:41:57.249Z,47.24
2022-11-18T01:45:09.702Z,47.11
2022-11-18T01:48:01.978Z,47.03
2022-11-18T01:50:55.141Z,47.39
2022-11-18T01:53:45.083Z,47.21
2022-11-18T01:56:38.136Z,47.30
2022-11-18T01:59:30.038Z,47.37
2022-11-18T02:02:18.822Z,47.10
2022-11-18T02:05:09.093Z,47.41
2022-11-18T02:07:59.947Z,47.05
2022-11-18T02:10:48.566Z,47.22
2022-11-18T02:13:37.202Z,47.08
2022-11-18T02:16:32.000Z,47.04
2022-11-18T02:19:43.298Z,47.28
2022-11-18T02:22:44.998Z,47.34
2022-11-18T02:25:45.624Z,47.31
2022-11-18T02:28:39.225Z,47.38
2022-11-18T02:31:33.180Z,47.39
2022-11-18T02:34:42.041Z,47.04
2022-11-18T02:37:35.409Z,47.19
2022-11-18T02:40:26.208Z,47.15
2022-11-18T02:43:18.507Z,46.99
2022-11-18T02:46:12.699Z,47.08
2022-11-18T02:49:04.615Z,47.27
2022-11-18T02:51:53.353Z,46.93
2022-11-18T02:54:43.295Z,47.17
2022-11-18T02:57:33.120Z,47.17
2022-11-18T03:00:21.931Z,47.38
2022-11-18T03:03:27.751Z,46.92
2022-11-18T03:06:28.214Z,47.20
2022-11-18T03:09:20.718Z,46.93
2022-11-18T03:12:16.193Z,47.11
2022-11-18T03:15:10.781Z,47.44
2022-11-18T03:18:05.095Z,47.13
2022-11-18T03:20:56.540Z,47.35
2022-11-18T03:23:53.061Z,47.29
2022-11-18T03:26:44.325Z,47.20
2022-11-18T03:29:36.471Z,47.20
2022-11-18T03:32:27.576Z,47.42
2022-11-18T03:35:19.674Z,46.99
2022-11-18T03:38:10.827Z,47.06
2022-11-18T03:41:03.255Z,47.24
2022-11-18T03:43:55.452Z,47.33
2022-11-18T03:46:46.472Z,47.28
2022-11-18T03:49:37.678Z,47.25
2022-11-18T03:52:28.456Z,47.52
2022-11-18T03:55:19.613Z,47.20
2022-11-18T03:58:13.164Z,47.35
2022-11-18T04:01:06.170Z,47.27
2022-11-18T04:03:54.995Z,47.47
2022-11-18T04:06:45.726Z,47.22
2022-11-18T04:09:41.339Z,47.11
2022-11-18T04:12:31.393Z,47.29
2022-11-18T04:15:21.568Z,47.02
2022-11-18T04:18:11.020Z,47.10
2022-11-18T04:20:59.647Z,47.16
2022-11-18T04:23:48.315Z,47.15
2022-11-18T04:26:37.000Z,47.18
2022-11-18T04:29:25.685Z,47.40
2022-11-18T04:32:15.668Z,47.06
2022-11-18T04:35:04.322Z,47.20
2022-11-18T04:37:52.921Z,47.19
2022-11-18T04:40:41.590Z,46.97
2022-11-18T04:43:30.185Z,47.27
2022-11-18T04:46:18.877Z,47.06
2022-11-18T04:49:09.142Z,47.17
2022-11-18T04:51:58.718Z,47.23
2022-11-18T04:54:47.776Z,47.14
2022-11-18T04:57:36.495Z,47.29
2022-11-18T05:00:25.177Z,47.36
2022-11-18T05:03:13.813Z,47.19
2022-11-18T05:06:04.637Z,47.19
2022-11-18T05:08:53.316Z,47.03
2022-11-18T05:11:59.615Z,47.13
2022-11-18T05:14:50.436Z,46.99
2022-11-18T05:17:39.791Z,47.05
2022-11-18T05:20:28.546Z,46.97
2022-11-18T05:23:18.632Z,46.91
2022-11-18T05:26:10.212Z,47.18
2022-11-18T05:28:58.895Z,47.07
2022-11-18T05:31:47.696Z,46.84
2022-11-18T05:34:36.361Z,47.67
2022-11-18T05:37:25.111Z,47.78
2022-11-18T05:40:15.206Z,47.92
2022-11-18T05:43:12.018Z,47.82
2022-11-18T05:46:01.158Z,47.58
2022-11-18T05:48:49.884Z,47.55
2022-11-18T05:51:38.547Z,47.55
2022-11-18T05:54:27.376Z,47.41
2022-11-18T05:57:17.379Z,47.64
2022-11-18T06:00:06.735Z,47.92
2022-11-18T06:02:56.180Z,47.69
2022-11-18T06:05:44.922Z,47.61
2022-11-18T06:08:37.026Z,47.53
2022-11-18T06:11:25.713Z,47.50
2022-11-18T06:14:18.733Z,47.88
2022-11-18T06:17:12.277Z,47.91
2022-11-18T06:20:01.178Z,47.84
2022-11-18T06:22:51.440Z,47.68
2022-11-18T06:25:40.874Z,47.61
2022-11-18T06:28:29.730Z,47.99
2022-11-18T06:31:19.782Z,47.91
2022-11-18T06:34:08.397Z,47.44
2022-11-18T06:36:56.972Z,47.73
2022-11-18T06:39:45.783Z,47.47
2022-11-18T06:42:51.771Z,47.59
2022-11-18T06:46:03.539Z,47.64
2022-11-18T06:48:58.027Z,47.41
2022-11-18T06:51:46.687Z,47.56
2022-11-18T06:54:35.244Z,47.84
2022-11-18T06:57:23.861Z,47.59
2022-11-18T07:00:13.801Z,47.53
2022-11-18T07:03:03.788Z,47.70
2022-11-18T07:05:53.776Z,47.48
2022-11-18T07:08:43.250Z,47.61
2022-11-18T07:11:31.923Z,47.75
2022-11-18T07:14:20.762Z,47.56
2022-11-18T07:17:09.368Z,47.59
2022-11-18T07:19:57.948Z,47.52
2022-11-18T07:22:48.003Z,47.38
2022-11-18T07:25:40.112Z,47.31
2022-11-18T07:28:32.021Z,47.56
2022-11-18T07:31:21.921Z,47.78
2022-11-18T07:34:10.559Z,47.80
2022-11-18T07:36:59.112Z,47.75
2022-11-18T07:39:49.132Z,47.52
2022-11-18T07:42:42.730Z,47.45
2022-11-18T07:45:31.465Z,47.59
2022-11-18T07:48:20.076Z,47.44
2022-11-18T07:51:09.047Z,47.62
2022-11-18T07:53:58.194Z,47.53
2022-11-18T07:56:48.230Z,47.37
2022-11-18T07:59:36.857Z,47.28
2022-11-18T08:02:25.515Z,47.70
2022-11-18T08:05:17.924Z,47.44
2022-11-18T08:08:06.930Z,47.21
2022-11-18T08:10:57.204Z,47.30
2022-11-18T08:13:47.324Z,47.63
2022-11-18T08:16:35.953Z,47.81
2022-11-18T08:19:25.074Z,47.39
2022-11-18T08:22:13.730Z,47.27
2022-11-18T08:25:02.372Z,47.34
2022-11-18T08:27:50.994Z,47.39
2022-11-18T08:30:41.065Z,47.23
2022-11-18T08:33:29.741Z,47.38
2022-11-18T08:36:20.333Z,47.62
2022-11-18T08:39:10.749Z,47.68
2022-11-18T08:42:00.187Z,47.49
2022-11-18T08:44:48.837Z,47.65
2022-11-18T08:47:39.216Z,47.45
2022-11-18T08:50:27.846Z,47.48
2022-11-18T08:53:17.243Z,47.74
2022-11-18T08:56:05.909Z,47.51
2022-11-18T08:58:55.978Z,47.26
2022-11-18T09:01:44.646Z,47.40
2022-11-18T09:04:34.652Z,47.44
2022-11-18T09:07:23.986Z,47.31
2022-11-18T09:10:12.613Z,47.10
2022-11-18T09:13:24.838Z,47.49
2022-11-18T09:16:10.545Z,47.17
2022-11-18T09:19:08.548Z,46.91
2022-11-18T09:22:08.990Z,46.96
2022-11-18T09:24:57.622Z,47.05
2022-11-18T09:27:47.737Z,47.12
2022-11-18T09:30:36.419Z,47.32
2022-11-18T09:33:25.457Z,47.35
2022-11-18T09:36:15.821Z,47.15
2022-11-18T09:39:06.235Z,47.07
2022-11-18T09:42:02.119Z,47.07
2022-11-18T09:45:10.011Z,47.16
2022-11-18T09:48:19.522Z,47.24
2022-11-18T09:51:08.436Z,47.27
2022-11-18T09:53:57.064Z,47.10
2022-11-18T09:56:48.371Z,47.24
2022-11-18T09:59:37.115Z,47.38
2022-11-18T10:02:32.259Z,47.11
2022-11-18T10:05:23.396Z,47.12
2022-11-18T10:08:21.869Z,46.26
2022-11-18T10:11:15.290Z,46.74
2022-11-18T10:14:15.961Z,47.13
2022-11-18T10:17:13.489Z,47.04
2022-11-18T10:20:14.356Z,47.00
2022-11-18T10:23:09.516Z,47.40
2022-11-18T10:25:58.606Z,47.31
2022-11-18T10:28:47.248Z,47.11
2022-11-18T10:31:39.263Z,47.15
2022-11-18T10:34:27.849Z,47.36
2022-11-18T10:37:38.692Z,47.22
2022-11-18T10:40:34.154Z,47.32
2022-11-18T10:43:48.810Z,47.38
2022-11-18T10:46:39.485Z,47.55
2022-11-18T10:49:28.124Z,47.40
2022-11-18T10:52:17.158Z,46.92
2022-11-18T10:55:24.210Z,47.51
2022-11-18T10:58:17.116Z,47.39
2022-11-18T11:01:09.689Z,47.09
2022-11-18T11:04:02.333Z,46.97
2022-11-18T11:06:51.037Z,47.05
2022-11-18T11:09:39.693Z,46.94
2022-11-18T11:12:29.464Z,47.36
2022-11-18T11:15:21.296Z,47.49
2022-11-18T11:18:34.253Z,47.26
2022-11-18T11:21:25.288Z,47.22
2022-11-18T11:24:14.165Z,47.25
2022-11-18T11:30:20.758Z,47.26
2022-11-18T11:33:28.322Z,47.48
2022-11-18T11:36:34.319Z,47.06
2022-11-18T11:39:40.036Z,47.28
2022-11-18T11:42:40.630Z,47.33
2022-11-18T11:45:33.812Z,47.30
2022-11-18T11:48:32.827Z,47.45
2022-11-18T11:51:25.892Z,47.28
2022-11-18T11:54:40.195Z,47.24
2022-11-18T11:57:37.602Z,47.41
2022-11-18T12:00:28.799Z,47.15
2022-11-18T12:03:34.707Z,47.13
2022-11-18T12:06:23.372Z,47.52
2022-11-18T12:09:17.848Z,47.28
2022-11-18T12:12:30.959Z,47.31
2022-11-18T12:15:27.791Z,47.43
2022-11-18T12:18:21.438Z,47.41
2022-11-18T12:21:10.155Z,47.33
2022-11-18T12:24:31.050Z,47.31
2022-11-18T12:27:49.457Z,46.96
2022-11-18T12:30:39.507Z,47.24
2022-11-18T12:33:28.222Z,47.04
2022-11-18T12:36:26.960Z,47.50
2022-11-18T12:39:58.600Z,47.29
2022-11-18T12:43:05.600Z,47.22
2022-11-18T12:45:57.583Z,47.00
2022-11-18T12:48:46.317Z,47.21
2022-11-18T12:51:44.327Z,47.15
2022-11-18T12:54:35.515Z,46.95
2022-11-18T12:57:26.496Z,47.54
2022-11-18T13:00:29.080Z,47.02
2022-11-18T13:03:24.410Z,47.16
2022-11-18T13:06:23.514Z,47.09
2022-11-18T13:09:17.924Z,47.17
2022-11-18T13:12:13.141Z,46.91
2022-11-18T13:15:21.107Z,47.28
2022-11-18T13:18:15.294Z,47.15
2022-11-18T13:21:25.349Z,47.25
2022-11-18T13:24:13.762Z,47.10
2022-11-18T13:27:02.421Z,47.39
2022-11-18T13:29:54.420Z,47.29
2022-11-18T13:32:44.926Z,47.42
2022-11-18T13:35:33.745Z,47.12
2022-11-18T13:38:28.598Z,46.99
2022-11-18T13:41:24.512Z,47.11
2022-11-18T13:44:18.597Z,47.30
2022-11-18T13:47:12.883Z,47.25
2022-11-18T13:50:06.776Z,47.17
2022-11-18T13:53:05.196Z,46.84
2022-11-18T13:55:57.008Z,47.12
2022-11-18T14:01:57.179Z,47.23
2022-11-18T14:04:52.996Z,46.98
2022-11-18T14:07:42.734Z,47.12
2022-11-18T14:10:38.095Z,46.99
2022-11-18T14:13:31.031Z,46.90
2022-11-18T14:16:34.085Z,46.27
2022-11-18T14:19:30.907Z,44.10
2022-11-18T14:22:21.358Z,42.96
2022-11-18T14:25:19.231Z,42.12
2022-11-18T14:28:22.182Z,41.96
2022-11-18T14:31:25.853Z,41.31
2022-11-18T14:34:21.107Z,41.49
2022-11-18T14:37:13.041Z,41.37
2022-11-18T14:40:01.629Z,42.05
2022-11-18T14:42:50.310Z,41.77
2022-11-18T14:45:39.109Z,42.16
2022-11-18T14:48:32.619Z,40.40
2022-11-18T14:51:21.565Z,39.91
2022-11-18T14:54:17.253Z,40.08
2022-11-18T14:57:08.158Z,39.58
2022-11-18T14:59:56.765Z,39.33
2022-11-18T15:02:45.474Z,38.88
2022-11-18T15:05:40.998Z,38.73
2022-11-18T15:08:29.605Z,38.67
2022-11-18T15:11:19.076Z,38.22
2022-11-18T15:14:07.772Z,38.01
2022-11-18T15:16:56.402Z,37.81
2022-11-18T15:19:45.088Z,37.30
2022-11-18T15:22:35.496Z,37.39
2022-11-18T15:25:24.055Z,37.05
2022-11-18T15:28:12.706Z,32.42
2022-11-18T15:31:01.345Z,30.55
2022-11-18T15:33:51.147Z,29.12
2022-11-18T15:36:39.784Z,31.72
2022-11-18T15:39:31.061Z,33.70
2022-11-18T15:42:23.262Z,33.63
2022-11-18T15:45:12.227Z,34.72
2022-11-18T15:48:00.828Z,35.12
2022-11-18T15:50:53.245Z,35.80
2022-11-18T15:53:42.898Z,36.30
2022-11-18T15:56:34.142Z,36.42
2022-11-18T15:59:22.842Z,36.70
2022-11-18T16:02:12.268Z,36.58
2022-11-18T16:05:00.864Z,36.82
2022-11-18T16:07:54.712Z,36.95
2022-11-18T16:11:01.226Z,37.10
2022-11-18T16:13:51.194Z,37.54
2022-11-18T16:16:41.299Z,37.59
2022-11-18T16:19:33.492Z,37.66
2022-11-18T16:22:22.206Z,38.09
2022-11-18T16:25:11.474Z,38.57
2022-11-18T16:28:06.803Z,38.24
2022-11-18T16:31:15.028Z,38.21
2022-11-18T16:34:06.917Z,38.68
2022-11-18T16:36:56.984Z,39.07
2022-11-18T16:39:45.977Z,38.76
2022-11-18T16:42:34.617Z,39.10
2022-11-18T16:45:23.204Z,39.44
2022-11-18T16:48:13.250Z,39.43
2022-11-18T16:51:20.132Z,39.73
2022-11-18T16:54:08.969Z,39.35
2022-11-18T16:56:58.474Z,39.08
2022-11-18T16:59:47.144Z,39.33
2022-11-18T17:02:36.319Z,39.16
2022-11-18T17:05:26.696Z,38.94
2022-11-18T17:08:15.381Z,39.02
2022-11-18T17:11:08.393Z,39.30
2022-11-18T17:13:58.446Z,39.76
2022-11-18T17:16:47.675Z,39.39
2022-11-18T17:19:36.628Z,39.54
2022-11-18T17:22:26.604Z,39.29
2022-11-18T17:25:15.360Z,39.62
2022-11-18T17:28:04.021Z,39.36
2022-11-18T17:30:53.103Z,39.73
2022-11-18T17:33:42.688Z,39.92
2022-11-18T17:36:31.388Z,39.37
2022-11-18T17:39:24.092Z,39.36
2022-11-18T17:42:16.708Z,39.64
2022-11-18T17:45:05.670Z,39.73
2022-11-18T17:47:54.354Z,39.76
2022-11-18T17:50:43.056Z,39.82
2022-11-18T17:53:32.561Z,39.84
2022-11-18T17:56:23.123Z,40.69
2022-11-18T17:59:11.990Z,40.54
2022-11-18T18:02:00.752Z,40.24
2022-11-18T18:04:49.513Z,40.01
2022-11-18T18:07:38.175Z,39.77
2022-11-18T18:10:27.555Z,40.07
2022-11-18T18:13:35.303Z,40.21
2022-11-18T18:16:24.217Z,40.23
2022-11-18T18:19:14.716Z,40.14
2022-11-18T18:22:03.303Z,40.76
2022-11-18T18:24:51.916Z,41.70
2022-11-18T18:27:40.677Z,41.11
2022-11-18T18:30:30.666Z,40.58
2022-11-18T18:33:19.286Z,40.30
2022-11-18T18:36:10.275Z,40.23
2022-11-18T18:39:00.971Z,40.37
2022-11-18T18:41:49.574Z,40.19
2022-11-18T18:44:55.694Z,39.99
2022-11-18T18:47:45.766Z,40.22
2022-11-18T18:50:34.512Z,40.04
2022-11-18T18:53:23.122Z,39.92
2022-11-18T18:56:11.802Z,39.82
2022-11-18T18:59:00.718Z,40.13
2022-11-18T19:01:49.471Z,40.18
2022-11-18T19:04:39.785Z,40.13
2022-11-18T19:07:31.332Z,40.44
2022-11-18T19:10:20.204Z,40.12
2022-11-18T19:13:07.940Z,39.58
2022-11-18T19:15:56.627Z,39.48
2022-11-18T19:18:45.402Z,39.75
2022-11-18T19:21:35.845Z,39.71
2022-11-18T19:24:48.108Z,40.62
2022-11-18T19:27:33.892Z,41.32
2022-11-18T19:30:22.839Z,41.26
2022-11-18T19:33:12.870Z,41.83
2022-11-18T19:36:03.345Z,41.72
2022-11-18T19:38:53.360Z,42.18
2022-11-18T19:41:41.958Z,42.49
2022-11-18T19:44:30.725Z,42.27
2022-11-18T19:47:19.358Z,42.04
2022-11-18T19:50:08.716Z,42.41
2022-11-18T19:52:58.086Z,42.90
2022-11-18T19:55:56.048Z,43.08
2022-11-18T19:58:45.047Z,42.71
2022-11-18T20:01:33.756Z,42.59
2022-11-18T20:04:22.361Z,43.18
2022-11-18T20:07:10.968Z,43.18
2022-11-18T20:09:59.699Z,43.19
2022-11-18T20:12:49.708Z,42.87
2022-11-18T20:15:38.334Z,43.36
2022-11-18T20:18:27.002Z,42.96
2022-11-18T20:21:19.952Z,43.55
2022-11-18T20:24:09.833Z,43.29
2022-11-18T20:26:58.415Z,42.90
2022-11-18T20:29:48.548Z,43.15
2022-11-18T20:32:37.434Z,43.47
2022-11-18T20:35:25.964Z,43.00
2022-11-18T20:38:14.524Z,43.15
2022-11-18T20:41:03.874Z,43.46
2022-11-18T20:43:52.757Z,43.18
2022-11-18T20:46:42.699Z,43.31
2022-11-18T20:49:31.338Z,43.42
2022-11-18T20:52:19.939Z,43.23
2022-11-18T20:55:09.965Z,43.21
2022-11-18T20:57:58.627Z,43.12
2022-11-18T21:00:47.549Z,43.21
2022-11-18T21:03:37.708Z,43.30
2022-11-18T21:06:28.026Z,43.59
2022-11-18T21:09:17.578Z,43.63
2022-11-18T21:12:06.548Z,43.38
2022-11-18T21:14:54.138Z,43.65
2022-11-18T21:17:46.222Z,43.68
2022-11-18T21:20:53.813Z,43.72
2022-11-18T21:23:42.387Z,43.84
2022-11-18T21:26:32.477Z,43.87
2022-11-18T21:29:21.752Z,43.92
2022-11-18T21:32:10.536Z,43.94
2022-11-18T21:34:59.190Z,43.99
2022-11-18T21:37:49.159Z,43.86
2022-11-18T21:40:37.845Z,43.87
2022-11-18T21:43:57.989Z,43.86
2022-11-18T21:46:35.849Z,43.79
2022-11-18T21:49:24.475Z,44.15
2022-11-18T21:52:13.241Z,44.23
2022-11-18T21:55:03.165Z,44.16
2022-11-18T21:57:51.884Z,44.21
2022-11-18T22:00:40.823Z,44.41
2022-11-18T22:03:29.627Z,44.23
2022-11-18T22:06:19.035Z,44.59
2022-11-18T22:09:07.714Z,44.69
2022-11-18T22:11:57.722Z,44.13
2022-11-18T22:14:46.441Z,43.60
2022-11-18T22:17:35.091Z,42.59
2022-11-18T22:20:23.678Z,41.79
2022-11-18T22:23:12.300Z,41.07
2022-11-18T22:26:02.146Z,40.77
2022-11-18T22:28:56.626Z,40.53
2022-11-18T22:31:45.267Z,40.02
2022-11-18T22:34:33.861Z,40.06
2022-11-18T22:37:22.504Z,39.51
2022-11-18T22:40:12.471Z,38.17
2022-11-18T22:43:00.204Z,38.12
2022-11-18T22:45:50.301Z,37.77
2022-11-18T22:48:38.895Z,38.26
2022-11-18T22:51:28.001Z,37.83
2022-11-18T22:54:37.675Z,38.07
2022-11-18T22:57:25.233Z,38.24
2022-11-18T23:00:15.728Z,37.78
2022-11-18T23:03:05.816Z,38.11
2022-11-18T23:05:54.581Z,37.22
2022-11-18T23:08:43.943Z,36.97
2022-11-18T23:11:50.539Z,36.80
2022-11-18T23:14:39.249Z,37.25
2022-11-18T23:17:27.876Z,37.32
2022-11-18T23:20:18.214Z,36.84
2022-11-18T23:23:06.804Z,36.46
2022-11-18T23:25:55.532Z,37.10
2022-11-18T23:28:44.486Z,36.53
2022-11-18T23:31:33.560Z,36.44
2022-11-18T23:34:22.642Z,36.40
2022-11-18T23:37:12.658Z,36.55
2022-11-18T23:40:01.294Z,36.36
2022-11-18T23:42:50.041Z,35.98
2022-11-18T23:45:38.708Z,36.13
2022-11-18T23:48:28.294Z,35.85
2022-11-18T23:51:18.604Z,35.75
2022-11-18T23:54:09.799Z,36.13
2022-11-18T23:56:58.400Z,36.02
2022-11-18T23:59:47.087Z,35.88
